Time;durP1;ratioP1;P1;durP2;ratioP2;P2;SDS_P1;SDS_P2;PMS_P1;PMS_P2;Temp;Humidity;BMP_temperature;BMP_pressure;BME280_temperature;BME280_humidity;BME280_pressure;Samples;Min_cycle;Max_cycle;Signal;HPM_P1;HPM_P2
2022/04/13 00:02:25;;;;;;;49.90;25.48;;;;;;;;;;10436510;28;20108;-70
2022/04/13 00:07:28;;;;;;;49.88;24.55;;;;;;;;;;10433501;28;20041;-71
2022/04/13 00:12:32;;;;;;;42.42;22.70;;;;;;;;;;10434390;28;20247;-69
2022/04/13 00:17:36;;;;;;;39.83;20.17;;;;;;;;;;10435815;28;20038;-70
2022/04/13 00:22:39;;;;;;;37.58;18.77;;;;;;;;;;10460959;28;20041;-70
2022/04/13 00:27:43;;;;;;;37.90;17.77;;;;;;;;;;10435465;28;20045;-70
2022/04/13 00:32:45;;;;;;;35.47;17.10;;;;;;;;;;10434886;28;20332;-70
2022/04/13 00:37:48;;;;;;;38.17;18.00;;;;;;;;;;10433248;28;20065;-70
2022/04/13 00:42:52;;;;;;;31.27;17.85;;;;;;;;;;10434249;28;20045;-71
2022/04/13 00:47:55;;;;;;;38.30;19.80;;;;;;;;;;10446625;28;20386;-70
2022/04/13 00:52:59;;;;;;;38.97;18.80;;;;;;;;;;10474973;28;20240;-70
2022/04/13 00:58:07;;;;;;;36.95;19.75;;;;;;;;;;10432143;28;20394;-70
2022/04/13 01:03:09;;;;;;;42.65;20.95;;;;;;;;;;10472118;28;20201;-70
2022/04/13 01:08:13;;;;;;;41.10;21.85;;;;;;;;;;10449411;28;20327;-70
2022/04/13 01:13:18;;;;;;;51.10;25.92;;;;;;;;;;10432711;28;20083;-70
2022/04/13 01:18:20;;;;;;;53.37;25.77;;;;;;;;;;10433081;28;20252;-69
2022/04/13 01:23:25;;;;;;;41.28;22.42;;;;;;;;;;10455779;28;20052;-70
2022/04/13 01:28:28;;;;;;;44.00;22.42;;;;;;;;;;10449969;28;20041;-69
2022/04/13 01:33:31;;;;;;;45.08;19.60;;;;;;;;;;10431076;28;20346;-69
2022/04/13 01:38:35;;;;;;;42.20;21.90;;;;;;;;;;10431995;28;20111;-70
2022/04/13 01:43:38;;;;;;;46.77;23.07;;;;;;;;;;10432550;28;20337;-70
2022/04/13 01:48:40;;;;;;;46.53;24.70;;;;;;;;;;10429328;28;20052;-70
2022/04/13 01:53:44;;;;;;;56.50;27.40;;;;;;;;;;10459362;28;20243;-69
2022/04/13 01:58:46;;;;;;;49.30;24.58;;;;;;;;;;10445379;28;20041;-69
2022/04/13 02:03:50;;;;;;;58.72;26.90;;;;;;;;;;10458364;28;20289;-70
2022/04/13 02:08:53;;;;;;;56.10;25.95;;;;;;;;;;10446637;28;20041;-70
2022/04/13 02:13:56;;;;;;;56.42;27.35;;;;;;;;;;10430479;28;20065;-70
2022/04/13 02:18:58;;;;;;;61.72;29.63;;;;;;;;;;10431449;28;20041;-69
2022/04/13 02:24:04;;;;;;;59.58;31.50;;;;;;;;;;10431553;28;20268;-70
2022/04/13 02:29:06;;;;;;;62.33;31.02;;;;;;;;;;10431133;28;20041;-69
2022/04/13 02:34:08;;;;;;;70.50;32.42;;;;;;;;;;10429481;28;20079;-71
2022/04/13 02:39:13;;;;;;;52.10;27.17;;;;;;;;;;10429571;28;20085;-70
2022/04/13 02:44:15;;;;;;;62.60;30.37;;;;;;;;;;10437851;28;20053;-70
2022/04/13 02:49:18;;;;;;;67.65;32.58;;;;;;;;;;10437323;28;20033;-70
2022/04/13 02:54:22;;;;;;;66.07;32.08;;;;;;;;;;10472030;28;20053;-69
2022/04/13 02:59:24;;;;;;;59.55;29.50;;;;;;;;;;10445964;28;20053;-70
2022/04/13 03:04:32;;;;;;;65.18;31.50;;;;;;;;;;10454989;28;20132;-70
2022/04/13 03:09:35;;;;;;;53.97;26.55;;;;;;;;;;10450764;28;20045;-70
2022/04/13 03:14:40;;;;;;;50.08;26.08;;;;;;;;;;10437736;28;20060;-69
2022/04/13 03:19:42;;;;;;;50.65;25.73;;;;;;;;;;10436662;28;20042;-71
2022/04/13 03:24:46;;;;;;;51.25;26.88;;;;;;;;;;10437582;28;20045;-70
2022/04/13 03:29:48;;;;;;;54.38;25.90;;;;;;;;;;10437809;28;20049;-69
2022/04/13 03:34:50;;;;;;;52.88;26.52;;;;;;;;;;10453079;28;20294;-70
2022/04/13 03:39:56;;;;;;;48.30;24.25;;;;;;;;;;10431796;28;20077;-69
2022/04/13 03:45:02;;;;;;;47.25;24.80;;;;;;;;;;10437083;28;20232;-70
2022/04/13 03:50:05;;;;;;;58.15;26.75;;;;;;;;;;10447826;28;20042;-70
2022/04/13 03:55:11;;;;;;;50.38;25.60;;;;;;;;;;10437079;28;20049;-70
2022/04/13 04:00:15;;;;;;;46.80;24.90;;;;;;;;;;10449928;28;20048;-70
2022/04/13 04:05:17;;;;;;;46.78;25.10;;;;;;;;;;10437293;28;20241;-71
2022/04/13 04:10:22;;;;;;;43.70;26.27;;;;;;;;;;10437920;28;20045;-70
2022/04/13 04:15:24;;;;;;;42.33;24.38;;;;;;;;;;10437732;28;20233;-70
2022/04/13 04:20:27;;;;;;;52.40;27.75;;;;;;;;;;10437870;28;20212;-70
2022/04/13 04:25:31;;;;;;;55.70;27.98;;;;;;;;;;10436665;28;20041;-69
2022/04/13 04:30:33;;;;;;;82.43;38.42;;;;;;;;;;10437390;28;20045;-70
2022/04/13 04:35:36;;;;;;;71.22;42.90;;;;;;;;;;10436685;28;20041;-71
2022/04/13 04:40:41;;;;;;;87.40;46.15;;;;;;;;;;10436583;28;20060;-71
2022/04/13 04:45:43;;;;;;;66.57;36.35;;;;;;;;;;10436634;28;20053;-70
2022/04/13 04:50:45;;;;;;;44.90;29.27;;;;;;;;;;10436417;28;20053;-70
2022/04/13 04:55:49;;;;;;;44.78;30.25;;;;;;;;;;10436194;28;20053;-70
2022/04/13 05:00:52;;;;;;;37.50;22.95;;;;;;;;;;10435588;28;20056;-71
2022/04/13 05:05:54;;;;;;;31.67;20.27;;;;;;;;;;10435074;28;20034;-70
2022/04/13 05:10:58;;;;;;;33.42;20.00;;;;;;;;;;10432450;28;20232;-71
2022/04/13 05:16:00;;;;;;;28.60;18.48;;;;;;;;;;10433524;28;20053;-70
2022/04/13 05:21:04;;;;;;;27.02;18.30;;;;;;;;;;10435298;28;20090;-70
2022/04/13 05:26:08;;;;;;;24.23;15.70;;;;;;;;;;10434603;28;20049;-70
2022/04/13 05:31:10;;;;;;;24.08;16.90;;;;;;;;;;10428447;28;20053;-70
2022/04/13 05:36:12;;;;;;;;;;;;;;;;;;10432606;28;20041;-71
2022/04/13 05:41:17;;;;;;;31.80;24.80;;;;;;;;;;10434218;28;20008;-71
2022/04/13 05:46:19;;;;;;;19.67;15.25;;;;;;;;;;10432053;28;20049;-71
2022/04/13 05:51:22;;;;;;;17.55;11.68;;;;;;;;;;10432934;28;20069;-71
2022/04/13 05:56:26;;;;;;;17.52;12.10;;;;;;;;;;10433249;28;20049;-71
2022/04/13 06:01:28;;;;;;;15.93;11.50;;;;;;;;;;10431904;28;20325;-71
2022/04/13 06:06:31;;;;;;;15.55;11.60;;;;;;;;;;10433015;28;20056;-73
2022/04/13 06:11:34;;;;;;;17.58;10.27;;;;;;;;;;10432760;28;20371;-73
2022/04/13 06:16:37;;;;;;;14.63;10.40;;;;;;;;;;10436427;28;20095;-73
2022/04/13 06:21:40;;;;;;;12.57;9.15;;;;;;;;;;10446664;28;20308;-69
2022/04/13 06:26:43;;;;;;;11.95;8.23;;;;;;;;;;10408836;28;20100;-73
2022/04/13 06:31:47;;;;;;;11.07;8.35;;;;;;;;;;10405451;28;20257;-70
2022/04/13 06:36:50;;;;;;;12.05;8.10;;;;;;;;;;10404693;28;20062;-74
2022/04/13 06:41:53;;;;;;;16.60;8.52;;;;;;;;;;10459198;28;20061;-73
2022/04/13 06:46:58;;;;;;;13.43;7.78;;;;;;;;;;10446572;28;20056;-72
2022/04/13 06:52:00;;;;;;;15.57;8.07;;;;;;;;;;10445036;28;20084;-72
2022/04/13 06:57:04;;;;;;;9.38;6.65;;;;;;;;;;10446238;28;20053;-73
2022/04/13 07:02:10;;;;;;;8.75;7.05;;;;;;;;;;10445923;28;20337;-74
2022/04/13 07:07:15;;;;;;;10.27;6.80;;;;;;;;;;10446206;28;20069;-72
2022/04/13 07:12:19;;;;;;;9.50;6.97;;;;;;;;;;10446034;28;20240;-72
2022/04/13 07:17:21;;;;;;;9.70;5.85;;;;;;;;;;10446250;28;20111;-72
2022/04/13 07:22:24;;;;;;;8.65;5.72;;;;;;;;;;10444304;28;20052;-73
2022/04/13 07:27:28;;;;;;;8.27;5.32;;;;;;;;;;10443342;28;20048;-70
2022/04/13 07:32:31;;;;;;;6.55;4.90;;;;;;;;;;10438684;28;20050;-70
2022/04/13 07:37:33;;;;;;;5.25;4.18;;;;;;;;;;10437386;28;20097;-73
2022/04/13 07:42:37;;;;;;;7.15;5.68;;;;;;;;;;10438831;28;20068;-70
2022/04/13 07:47:40;;;;;;;6.78;4.63;;;;;;;;;;10437758;28;20387;-69
2022/04/13 07:52:43;;;;;;;5.97;4.30;;;;;;;;;;10438214;28;20271;-75
2022/04/13 07:57:46;;;;;;;6.22;4.75;;;;;;;;;;10436675;28;20065;-73
2022/04/13 08:02:49;;;;;;;5.95;4.07;;;;;;;;;;10438087;28;20053;-73
2022/04/13 08:07:51;;;;;;;5.18;4.25;;;;;;;;;;10436571;28;20092;-76
2022/04/13 08:12:55;;;;;;;6.53;4.82;;;;;;;;;;10437200;28;20053;-75
2022/04/13 08:17:57;;;;;;;5.57;3.72;;;;;;;;;;10437131;28;20037;-73
2022/04/13 08:23:06;;;;;;;6.97;4.28;;;;;;;;;;10435054;28;20085;-72
2022/04/13 08:28:10;;;;;;;6.10;4.35;;;;;;;;;;10449823;28;20348;-75
2022/04/13 08:33:12;;;;;;;6.45;3.38;;;;;;;;;;10435914;28;20062;-74
2022/04/13 08:38:15;;;;;;;5.28;3.60;;;;;;;;;;10434400;28;20069;-74
2022/04/13 08:43:26;;;;;;;7.32;3.53;;;;;;;;;;10434995;28;20297;-70
2022/04/13 08:48:28;;;;;;;5.20;3.35;;;;;;;;;;10448795;28;20042;-73
2022/04/13 08:53:32;;;;;;;5.03;3.60;;;;;;;;;;10435762;28;20061;-72
2022/04/13 08:58:45;;;;;;;4.55;3.53;;;;;;;;;;10434355;28;20225;-73
2022/04/13 09:03:50;;;;;;;9.15;5.28;;;;;;;;;;10448755;28;20053;-75
2022/04/13 09:08:54;;;;;;;5.72;4.40;;;;;;;;;;10434195;28;20068;-74
2022/04/13 09:13:59;;;;;;;8.25;5.20;;;;;;;;;;10434106;28;20053;-73
2022/04/13 09:19:03;;;;;;;5.60;4.38;;;;;;;;;;10434719;28;20332;-71
2022/04/13 09:24:09;;;;;;;6.60;5.10;;;;;;;;;;10433552;28;20059;-73
2022/04/13 09:29:13;;;;;;;5.55;4.93;;;;;;;;;;10447943;28;20091;-71
2022/04/13 09:34:15;;;;;;;8.27;5.18;;;;;;;;;;10433440;28;20049;-73
2022/04/13 09:39:20;;;;;;;7.82;5.78;;;;;;;;;;10432382;28;20057;-73
2022/04/13 09:44:25;;;;;;;8.20;5.22;;;;;;;;;;10433727;28;20045;-72
2022/04/13 09:49:27;;;;;;;8.57;6.20;;;;;;;;;;10432786;28;20042;-71
2022/04/13 09:54:29;;;;;;;12.15;6.15;;;;;;;;;;10432513;28;20080;-70
2022/04/13 09:59:33;;;;;;;12.23;6.13;;;;;;;;;;10432583;28;20049;-74
2022/04/13 10:04:37;;;;;;;10.10;6.57;;;;;;;;;;10432513;28;20356;-74
2022/04/13 10:09:39;;;;;;;8.30;5.95;;;;;;;;;;10428486;28;20279;-74
2022/04/13 10:14:43;;;;;;;9.13;6.57;;;;;;;;;;10432663;28;20057;-71
2022/04/13 10:19:53;;;;;;;11.55;7.13;;;;;;;;;;10433075;28;20333;-72
2022/04/13 10:24:56;;;;;;;10.18;7.32;;;;;;;;;;10444914;28;20045;-73
2022/04/13 10:30:07;;;;;;;11.73;8.63;;;;;;;;;;10431758;28;20060;-73
2022/04/13 10:35:10;;;;;;;10.32;7.63;;;;;;;;;;10436077;28;20061;-72
2022/04/13 10:40:12;;;;;;;9.90;6.68;;;;;;;;;;10430069;28;20217;-70
2022/04/13 10:45:18;;;;;;;10.35;7.63;;;;;;;;;;10431923;28;20061;-71
2022/04/13 10:50:30;;;;;;;10.95;7.45;;;;;;;;;;10432181;28;20045;-73
2022/04/13 10:55:36;;;;;;;12.93;7.50;;;;;;;;;;10445502;28;20053;-73
2022/04/13 11:00:45;;;;;;;11.82;8.07;;;;;;;;;;10445200;28;20047;-74
2022/04/13 11:05:48;;;;;;;14.00;8.18;;;;;;;;;;10451198;28;20169;-76
2022/04/13 11:10:51;;;;;;;17.20;9.35;;;;;;;;;;10438854;28;20272;-74
2022/04/13 11:15:55;;;;;;;12.75;8.45;;;;;;;;;;10439107;28;20072;-70
2022/04/13 11:21:10;;;;;;;12.95;9.32;;;;;;;;;;10438862;28;20042;-70
2022/04/13 11:26:13;;;;;;;12.25;9.52;;;;;;;;;;10436340;28;20363;-73
2022/04/13 11:31:18;;;;;;;14.47;9.20;;;;;;;;;;10438145;28;20064;-71
2022/04/13 11:36:21;;;;;;;;;;;;;;;;;;10438131;28;20056;-75
2022/04/13 11:41:23;;;;;;;22.73;10.68;;;;;;;;;;10435668;28;19929;-72
2022/04/13 11:46:38;;;;;;;15.40;11.50;;;;;;;;;;10438083;28;20053;-74
2022/04/13 11:51:41;;;;;;;15.60;10.38;;;;;;;;;;10438226;28;20375;-72
2022/04/13 11:56:50;;;;;;;16.02;10.60;;;;;;;;;;10433979;28;20324;-72
2022/04/13 12:01:57;;;;;;;13.75;9.15;;;;;;;;;;10450620;28;20395;-71
2022/04/13 12:07:00;;;;;;;12.13;9.30;;;;;;;;;;10450706;28;20234;-76
2022/04/13 12:12:03;;;;;;;11.00;8.57;;;;;;;;;;10436761;28;20117;-70
2022/04/13 12:17:08;;;;;;;11.90;9.20;;;;;;;;;;10436457;28;20065;-73
2022/04/13 12:22:14;;;;;;;9.93;8.40;;;;;;;;;;10430255;28;20333;-73
2022/04/13 12:27:18;;;;;;;11.70;8.75;;;;;;;;;;10396236;28;20249;-73
2022/04/13 12:32:21;;;;;;;11.07;8.87;;;;;;;;;;10395226;28;20050;-72
2022/04/13 12:37:24;;;;;;;11.63;9.77;;;;;;;;;;10404045;28;20072;-72
2022/04/13 12:42:26;;;;;;;13.15;9.95;;;;;;;;;;10436156;28;20052;-70
2022/04/13 12:47:30;;;;;;;12.02;9.32;;;;;;;;;;10435654;28;20064;-73
2022/04/13 12:52:33;;;;;;;22.52;10.20;;;;;;;;;;10434902;28;20041;-74
2022/04/13 12:57:36;;;;;;;14.27;9.27;;;;;;;;;;10433667;28;20049;-73
2022/04/13 13:02:50;;;;;;;15.27;9.43;;;;;;;;;;10433910;28;20099;-74
2022/04/13 13:07:53;;;;;;;10.73;9.27;;;;;;;;;;10448326;28;20049;-73
2022/04/13 13:13:09;;;;;;;12.32;9.35;;;;;;;;;;10434418;28;20279;-70
2022/04/13 13:18:17;;;;;;;14.82;9.93;;;;;;;;;;10448599;28;20041;-73
2022/04/13 13:23:24;;;;;;;12.27;10.15;;;;;;;;;;10446947;28;20068;-72
2022/04/13 13:28:27;;;;;;;14.85;10.23;;;;;;;;;;10447463;28;20071;-71
2022/04/13 13:33:31;;;;;;;15.02;10.27;;;;;;;;;;10434076;28;20053;-73
2022/04/13 13:38:35;;;;;;;19.85;10.25;;;;;;;;;;10433318;28;20221;-73
2022/04/13 13:43:38;;;;;;;14.43;10.30;;;;;;;;;;10434783;28;20057;-72
2022/04/13 13:48:43;;;;;;;15.60;10.20;;;;;;;;;;10432499;28;20048;-73
2022/04/13 13:53:52;;;;;;;19.88;11.60;;;;;;;;;;10431539;28;20065;-73
2022/04/13 13:58:54;;;;;;;14.80;11.48;;;;;;;;;;10445350;28;20041;-72
2022/04/13 14:03:58;;;;;;;17.80;12.02;;;;;;;;;;10431343;28;20087;-72
2022/04/13 14:09:00;;;;;;;15.18;10.00;;;;;;;;;;10432381;28;20052;-71
2022/04/13 14:14:03;;;;;;;16.13;10.80;;;;;;;;;;10426344;28;20356;-74
2022/04/13 14:19:07;;;;;;;15.45;11.00;;;;;;;;;;10433606;28;20072;-70
2022/04/13 14:24:12;;;;;;;15.18;11.10;;;;;;;;;;10433177;28;20042;-71
2022/04/13 14:29:15;;;;;;;19.73;11.57;;;;;;;;;;10428727;28;20068;-73
2022/04/13 14:34:19;;;;;;;18.60;11.45;;;;;;;;;;10429738;28;20052;-72
2022/04/13 14:39:23;;;;;;;17.77;11.80;;;;;;;;;;10426255;28;20045;-73
2022/04/13 14:44:28;;;;;;;18.38;11.10;;;;;;;;;;10420165;28;20046;-71
2022/04/13 14:49:31;;;;;;;;;;;;;;;;;;10400573;28;20049;-73
2022/04/13 14:54:33;;;;;;;17.20;12.05;;;;;;;;;;10424212;28;20866;-71
2022/04/13 14:59:38;;;;;;;14.70;11.23;;;;;;;;;;10402812;28;20065;-72
2022/04/13 15:04:41;;;;;;;17.47;11.43;;;;;;;;;;10404708;28;20072;-70
2022/04/13 15:09:44;;;;;;;17.98;11.68;;;;;;;;;;10439136;28;20083;-71
2022/04/13 15:14:46;;;;;;;17.20;12.20;;;;;;;;;;10440078;28;20053;-71
2022/04/13 15:19:50;;;;;;;18.55;11.95;;;;;;;;;;10439851;28;20068;-70
2022/04/13 15:24:52;;;;;;;17.98;12.10;;;;;;;;;;10437423;28;20053;-71
2022/04/13 15:29:54;;;;;;;17.20;11.02;;;;;;;;;;10433857;28;20054;-72
2022/04/13 15:34:58;;;;;;;17.83;11.65;;;;;;;;;;10439275;28;20378;-72
2022/04/13 15:40:02;;;;;;;16.75;11.18;;;;;;;;;;10438654;28;20057;-72
2022/04/13 15:45:06;;;;;;;23.33;11.30;;;;;;;;;;10436104;28;20045;-71
2022/04/13 15:50:11;;;;;;;18.77;11.90;;;;;;;;;;10437504;28;20049;-69
2022/04/13 15:55:16;;;;;;;15.98;11.50;;;;;;;;;;10437847;28;20061;-68
2022/04/13 16:00:19;;;;;;;;;;;;;;;;;;10437292;28;20256;-69
2022/04/13 16:05:22;;;;;;;19.92;13.45;;;;;;;;;;10438833;28;19925;-70
2022/04/13 16:10:25;;;;;;;19.30;13.45;;;;;;;;;;10437544;28;20091;-70
2022/04/13 16:15:27;;;;;;;18.45;13.38;;;;;;;;;;10435595;28;20344;-72
2022/04/13 16:20:32;;;;;;;24.13;15.50;;;;;;;;;;10437730;28;20045;-70
2022/04/13 16:25:35;;;;;;;;;;;;;;;;;;10436365;28;20045;-72
2022/04/13 16:30:37;;;;;;;21.42;14.18;;;;;;;;;;10434498;28;19924;-70
2022/04/13 16:35:43;;;;;;;21.83;13.52;;;;;;;;;;10436512;28;20041;-69
2022/04/13 16:40:45;;;;;;;23.90;14.98;;;;;;;;;;10437474;28;20081;-68
2022/04/13 16:45:47;;;;;;;23.85;14.55;;;;;;;;;;10435798;28;20069;-68
2022/04/13 16:50:51;;;;;;;25.55;14.52;;;;;;;;;;10434665;28;20080;-70
2022/04/13 16:55:54;;;;;;;29.42;15.68;;;;;;;;;;10435133;28;20052;-70
2022/04/13 17:00:56;;;;;;;29.58;16.90;;;;;;;;;;10467018;28;20048;-70
2022/04/13 17:06:01;;;;;;;27.00;16.60;;;;;;;;;;10474814;28;20193;-73
2022/04/13 17:11:04;;;;;;;41.17;22.13;;;;;;;;;;10441441;28;20319;-69
2022/04/13 17:16:06;;;;;;;27.30;17.75;;;;;;;;;;10427014;28;20072;-74
2022/04/13 17:21:10;;;;;;;38.97;22.83;;;;;;;;;;10434497;28;20048;-71
2022/04/13 17:26:13;;;;;;;36.45;17.85;;;;;;;;;;10432576;28;20068;-73
2022/04/13 17:31:15;;;;;;;30.15;18.98;;;;;;;;;;10434093;28;20092;-69
2022/04/13 17:36:19;;;;;;;28.98;18.17;;;;;;;;;;10432525;28;20045;-71
2022/04/13 17:41:22;;;;;;;41.65;21.08;;;;;;;;;;10431548;28;20132;-71
2022/04/13 17:46:25;;;;;;;38.50;21.75;;;;;;;;;;10417177;28;20356;-70
2022/04/13 17:51:28;;;;;;;41.92;20.98;;;;;;;;;;10430480;28;20046;-71
2022/04/13 17:56:31;;;;;;;41.22;22.33;;;;;;;;;;10432848;28;20112;-70
2022/04/13 18:01:34;;;;;;;38.78;21.38;;;;;;;;;;10433279;28;20053;-72
2022/04/13 18:06:38;;;;;;;34.30;20.35;;;;;;;;;;10431434;28;20056;-71
2022/04/13 18:11:40;;;;;;;36.15;20.75;;;;;;;;;;10442472;28;20053;-70
2022/04/13 18:16:43;;;;;;;37.90;23.35;;;;;;;;;;10436805;28;20072;-71
2022/04/13 18:21:47;;;;;;;44.22;25.60;;;;;;;;;;10434691;28;20225;-68
2022/04/13 18:26:50;;;;;;;60.80;27.00;;;;;;;;;;10432718;28;20049;-71
2022/04/13 18:31:53;;;;;;;49.22;26.38;;;;;;;;;;10433145;28;20076;-72
2022/04/13 18:36:57;;;;;;;48.88;25.75;;;;;;;;;;10432106;28;20192;-73
2022/04/13 18:42:01;;;;;;;44.58;22.20;;;;;;;;;;10459030;28;20040;-73
2022/04/13 18:47:04;;;;;;;42.63;22.45;;;;;;;;;;10471668;28;20129;-72
2022/04/13 18:52:08;;;;;;;42.15;22.63;;;;;;;;;;10430539;28;20386;-70
2022/04/13 18:57:10;;;;;;;42.17;23.13;;;;;;;;;;10432972;28;20065;-71
2022/04/13 19:02:13;;;;;;;45.63;24.27;;;;;;;;;;10429434;28;20045;-72
2022/04/13 19:07:17;;;;;;;53.03;26.27;;;;;;;;;;10431880;28;20056;-71
2022/04/13 19:12:20;;;;;;;52.60;25.02;;;;;;;;;;10430871;28;20337;-72
2022/04/13 19:17:22;;;;;;;41.15;19.58;;;;;;;;;;10443810;28;20272;-69
2022/04/13 19:22:25;;;;;;;33.45;18.48;;;;;;;;;;10430335;28;20049;-71
2022/04/13 19:27:28;;;;;;;37.97;20.33;;;;;;;;;;10437175;28;20083;-71
2022/04/13 19:32:31;;;;;;;37.85;19.23;;;;;;;;;;10437852;28;20152;-71
2022/04/13 19:37:35;;;;;;;36.97;19.65;;;;;;;;;;10435555;28;20069;-69
2022/04/13 19:42:38;;;;;;;35.35;21.48;;;;;;;;;;10414271;28;20041;-71
2022/04/13 19:47:40;;;;;;;38.92;20.05;;;;;;;;;;10438071;28;20053;-71
2022/04/13 19:52:44;;;;;;;35.63;20.55;;;;;;;;;;10434760;28;20041;-68
2022/04/13 19:57:47;;;;;;;44.08;23.58;;;;;;;;;;10424216;28;20256;-69
2022/04/13 20:02:49;;;;;;;40.95;22.45;;;;;;;;;;10435781;28;20056;-73
2022/04/13 20:07:54;;;;;;;40.72;21.92;;;;;;;;;;10437141;28;20053;-73
2022/04/13 20:12:56;;;;;;;42.57;22.57;;;;;;;;;;10457905;28;20033;-71
2022/04/13 20:17:59;;;;;;;41.30;21.67;;;;;;;;;;10469461;28;20096;-72
2022/04/13 20:23:03;;;;;;;36.42;21.15;;;;;;;;;;10437166;28;20329;-71
2022/04/13 20:28:08;;;;;;;41.22;22.00;;;;;;;;;;10434860;28;20049;-71
2022/04/13 20:33:11;;;;;;;45.55;21.88;;;;;;;;;;10436852;28;20057;-73
2022/04/13 20:38:16;;;;;;;37.75;20.92;;;;;;;;;;10436090;28;20065;-73
2022/04/13 20:43:18;;;;;;;38.03;20.67;;;;;;;;;;10447295;28;20048;-69
2022/04/13 20:48:21;;;;;;;37.97;20.30;;;;;;;;;;10435998;28;20041;-68
2022/04/13 20:53:28;;;;;;;33.33;19.70;;;;;;;;;;10452177;28;20367;-71
2022/04/13 20:58:30;;;;;;;35.30;19.70;;;;;;;;;;10434667;28;20333;-72
2022/04/13 21:03:33;;;;;;;33.65;20.00;;;;;;;;;;10435981;28;20251;-67
2022/04/13 21:08:37;;;;;;;32.63;19.73;;;;;;;;;;10434806;28;20305;-69
2022/04/13 21:13:39;;;;;;;31.95;17.95;;;;;;;;;;10432993;28;20046;-73
2022/04/13 21:18:44;;;;;;;33.70;18.45;;;;;;;;;;10469785;28;20060;-71
2022/04/13 21:23:48;;;;;;;31.67;18.33;;;;;;;;;;10432919;28;20056;-70
2022/04/13 21:28:51;;;;;;;37.40;21.08;;;;;;;;;;10435732;28;20045;-73
2022/04/13 21:33:53;;;;;;;38.75;19.50;;;;;;;;;;10433309;28;20048;-71
2022/04/13 21:38:59;;;;;;;32.92;19.00;;;;;;;;;;10434336;28;20123;-69
2022/04/13 21:44:02;;;;;;;33.53;19.33;;;;;;;;;;10445479;28;20348;-69
2022/04/13 21:49:04;;;;;;;36.55;20.25;;;;;;;;;;10473273;28;20108;-70
2022/04/13 21:54:09;;;;;;;38.58;19.98;;;;;;;;;;10434688;28;20060;-71
2022/04/13 21:59:13;;;;;;;37.58;20.20;;;;;;;;;;10430484;28;20219;-70
2022/04/13 22:04:15;;;;;;;35.67;20.45;;;;;;;;;;10433023;28;20357;-72
2022/04/13 22:09:19;;;;;;;37.70;19.00;;;;;;;;;;10432745;28;20057;-73
2022/04/13 22:14:22;;;;;;;33.88;19.80;;;;;;;;;;10457491;28;20103;-72
2022/04/13 22:19:24;;;;;;;34.47;18.92;;;;;;;;;;10431661;28;20053;-73
2022/04/13 22:24:28;;;;;;;38.85;21.67;;;;;;;;;;10433934;28;20076;-68
2022/04/13 22:29:30;;;;;;;45.50;23.35;;;;;;;;;;10473552;28;20067;-70
2022/04/13 22:34:34;;;;;;;36.97;21.98;;;;;;;;;;10462547;28;20376;-71
2022/04/13 22:39:39;;;;;;;40.50;19.40;;;;;;;;;;10431033;28;20403;-71
2022/04/13 22:44:42;;;;;;;32.47;19.23;;;;;;;;;;10452292;28;20114;-73
2022/04/13 22:49:44;;;;;;;59.22;25.05;;;;;;;;;;10473592;28;20374;-72
2022/04/13 22:54:49;;;;;;;54.40;24.85;;;;;;;;;;10439041;28;20099;-71
2022/04/13 22:59:51;;;;;;;56.58;24.73;;;;;;;;;;10434338;28;20336;-70
2022/04/13 23:04:53;;;;;;;41.63;23.08;;;;;;;;;;10439474;28;20098;-72
2022/04/13 23:09:58;;;;;;;43.75;23.45;;;;;;;;;;10457726;28;20291;-71
2022/04/13 23:15:02;;;;;;;40.17;22.60;;;;;;;;;;10467555;28;20235;-71
2022/04/13 23:20:05;;;;;;;43.65;22.80;;;;;;;;;;10438962;28;20104;-70
2022/04/13 23:25:09;;;;;;;76.57;42.55;;;;;;;;;;10439257;28;20083;-71
2022/04/13 23:30:13;;;;;;;46.53;25.48;;;;;;;;;;10438159;28;20056;-71
2022/04/13 23:35:16;;;;;;;43.03;22.70;;;;;;;;;;10437288;28;20103;-71
2022/04/13 23:40:21;;;;;;;46.08;24.45;;;;;;;;;;10439388;28;20072;-71
2022/04/13 23:45:24;;;;;;;52.28;24.48;;;;;;;;;;10439611;28;20049;-72
2022/04/13 23:50:27;;;;;;;43.33;23.50;;;;;;;;;;10439432;28;20045;-70
2022/04/13 23:55:30;;;;;;;43.38;22.75;;;;;;;;;;10438931;28;20037;-71
